Aviation Digital Data Service (ADDS)

Output produced by METARs form (0137 UTC 23 November 2017)
found at http://www.aviationweather.gov/adds/metars/
 
GOGS 230000Z 34004KT CAVOK 25/23 Q1011
TAF GOGS 222330Z 2300/2324 04006KT 8000 NSC
       
GOGG 230000Z VRB02KT CAVOK 24/20 Q1011
GOGK 230000Z VRB02KT 8000 NSC 22/19 Q1010
GOGS 230000Z 34004KT CAVOK 25/23 Q1011
TAF GOGS 222330Z 2300/2324 04006KT 8000 NSC
       
GOOD 230000Z VRB02KT 8000 NSC 24/17 Q1012
GOOG 230000Z 00000KT 8000 NSC 26/04 Q////
GOOK 230000Z 36004KT CAVOK 26/14 Q1013
GOOY 230100Z 02010KT CAVOK 26/20 Q1012 NOSIG
TAF GOOY 222330Z 2300/2406 02014KT CAVOK
       
GOSM 230000Z 02004KT CAVOK 27/09 Q1011
GOSP 230000Z 00000KT CAVOK 26/06 Q1012
GOSS 230100Z 04004KT CAVOK 22/21 Q1012
TAF GOSS 222330Z 2300/2324 03010KT CAVOK
       
GOTT 230000Z 06002KT CAVOK 25/14 Q1010
GOOK 230000Z 36004KT CAVOK 26/14 Q1013
GOOY 230100Z 02010KT CAVOK 26/20 Q1012 NOSIG
TAF GOOY 222330Z 2300/2406 02014KT CAVOK
       
GOSS 230100Z 04004KT CAVOK 22/21 Q1012
TAF GOSS 222330Z 2300/2324 03010KT CAVOK
       
GOTT 230000Z 06002KT CAVOK 25/14 Q1010
GOGG 230000Z VRB02KT CAVOK 24/20 Q1011